Time;durP1;ratioP1;P1;durP2;ratioP2;P2;SDS_P1;SDS_P2;PMS_P1;PMS_P2;Temp;Humidity;BMP_temperature;BMP_pressure;BME280_temperature;BME280_humidity;BME280_pressure;Samples;Min_cycle;Max_cycle;Signal;HPM_P1;HPM_P2
2023/08/19 00:01:57;;;;;;;18.55;16.73;;;;;;;-147.16;100.00;58666.56;7404029;19;20026;-68
2023/08/19 00:04:25;;;;;;;20.05;18.13;;;;;;;-147.16;100.00;58666.56;7398258;19;20031;-68
2023/08/19 00:06:53;;;;;;;19.00;17.10;;;;;;;-147.16;100.00;58666.56;7397592;19;20381;-68
2023/08/19 00:09:22;;;;;;;20.52;18.30;;;;;;;-147.16;100.00;58666.56;7400490;19;20046;-66
2023/08/19 00:11:51;;;;;;;20.52;18.52;;;;;;;-147.16;100.00;58666.56;7400341;19;20019;-68
2023/08/19 00:14:23;;;;;;;19.98;17.98;;;;;;;-147.16;100.00;58666.56;7397820;19;20019;-68
2023/08/19 00:16:52;;;;;;;20.25;18.08;;;;;;;-147.16;100.00;58666.56;7399855;19;20011;-67
2023/08/19 00:19:20;;;;;;;19.70;17.67;;;;;;;-147.16;100.00;58666.56;7399442;19;20015;-68
2023/08/19 00:21:55;;;;;;;20.40;18.45;;;;;;;-147.16;100.00;58666.56;7400086;19;20350;-68
2023/08/19 00:24:24;;;;;;;20.48;18.20;;;;;;;-147.16;100.00;58666.56;7397936;19;20074;-67
2023/08/19 00:26:52;;;;;;;19.63;17.65;;;;;;;-147.16;100.00;58666.56;7399793;19;20074;-68
2023/08/19 00:29:23;;;;;;;20.40;18.25;;;;;;;-147.16;100.00;58666.56;7399501;19;20078;-67
2023/08/19 00:31:52;;;;;;;19.65;17.35;;;;;;;-147.16;100.00;58666.56;7399279;19;20007;-67
2023/08/19 00:34:21;;;;;;;20.60;18.60;;;;;;;-147.16;100.00;58666.56;7397667;19;20078;-67
2023/08/19 00:36:49;;;;;;;20.48;18.38;;;;;;;-147.16;100.00;58666.56;7399476;19;20022;-67
2023/08/19 00:39:18;;;;;;;19.40;17.45;;;;;;;-147.16;100.00;58666.56;7399101;19;20407;-67
2023/08/19 00:41:48;;;;;;;19.65;17.65;;;;;;;-147.16;100.00;58666.56;7399496;19;20086;-68
2023/08/19 00:44:16;;;;;;;21.52;17.60;;;;;;;-147.16;100.00;58666.56;7397662;19;20419;-68
2023/08/19 00:46:48;;;;;;;19.33;17.27;;;;;;;-147.16;100.00;58666.56;7399079;19;20023;-67
2023/08/19 00:49:16;;;;;;;20.55;18.33;;;;;;;-147.16;100.00;58666.56;7397119;19;20029;-67
2023/08/19 00:51:45;;;;;;;20.60;17.92;;;;;;;-147.16;100.00;58666.56;7398900;19;20031;-68
2023/08/19 00:54:14;;;;;;;19.08;16.52;;;;;;;-147.16;100.00;58666.56;7396892;19;20066;-68
2023/08/19 00:56:42;;;;;;;20.73;18.67;;;;;;;-147.16;100.00;58666.56;7398830;19;20022;-68
2023/08/19 00:59:11;;;;;;;20.10;17.02;;;;;;;-147.16;100.00;58666.56;7398663;19;20077;-68
2023/08/19 01:01:39;;;;;;;19.30;17.20;;;;;;;-147.16;100.00;58666.56;7398503;19;20027;-68
2023/08/19 01:04:11;;;;;;;19.52;17.45;;;;;;;-147.16;100.00;58666.56;7396480;19;20018;-68
2023/08/19 01:06:53;;;;;;;18.73;16.92;;;;;;;-147.16;100.00;58666.56;7398917;19;20010;-69
2023/08/19 01:09:33;;;;;;;20.73;18.65;;;;;;;-147.16;100.00;58666.56;7398723;19;20018;-68
2023/08/19 01:12:12;;;;;;;19.48;17.42;;;;;;;-147.16;100.00;58666.56;7398023;19;20002;-69
2023/08/19 01:14:50;;;;;;;19.60;17.67;;;;;;;-147.16;100.00;58666.56;7393907;19;20019;-67
2023/08/19 01:17:24;;;;;;;18.48;16.52;;;;;;;-147.16;100.00;58666.56;7398530;19;20014;-67
2023/08/19 01:19:58;;;;;;;21.33;19.05;;;;;;;-147.16;100.00;58666.56;7395399;19;20019;-67
2023/08/19 01:22:35;;;;;;;27.48;20.20;;;;;;;-147.16;100.00;58666.56;7397952;19;20093;-67
2023/08/19 01:25:09;;;;;;;21.60;19.35;;;;;;;-147.16;100.00;58666.56;7396073;19;20474;-66
2023/08/19 01:27:37;;;;;;;;;;;;;;;-147.16;100.00;58666.56;7398807;19;20027;-67
2023/08/19 01:30:06;;;;;;;22.42;19.98;;;;;;;-147.16;100.00;58666.56;7397894;19;19915;-67
2023/08/19 01:32:35;;;;;;;25.08;18.40;;;;;;;-147.16;100.00;58666.56;7397100;19;20432;-67
2023/08/19 01:35:03;;;;;;;22.23;19.92;;;;;;;-147.16;100.00;58666.56;7397595;19;20032;-67
2023/08/19 01:37:40;;;;;;;21.38;19.08;;;;;;;-147.16;100.00;58666.56;7397522;19;20023;-67
2023/08/19 01:40:13;;;;;;;21.08;18.98;;;;;;;-147.16;100.00;58666.56;7397958;19;20078;-67
2023/08/19 01:42:42;;;;;;;;;;;;;;;-147.16;100.00;58666.56;7398450;19;20006;-68
2023/08/19 01:45:12;;;;;;;20.70;18.70;;;;;;;-147.16;100.00;58666.56;7396030;19;19986;-67
2023/08/19 01:47:42;;;;;;;20.85;18.65;;;;;;;-147.16;100.00;58666.56;7397008;19;20077;-67
2023/08/19 01:50:11;;;;;;;21.77;18.58;;;;;;;-147.16;100.00;58666.56;7396770;19;20003;-67
2023/08/19 01:52:40;;;;;;;22.38;20.13;;;;;;;-147.16;100.00;58666.56;7395076;19;20027;-68
2023/08/19 01:55:12;;;;;;;22.98;20.70;;;;;;;-147.16;100.00;58666.56;7397028;19;20019;-67
2023/08/19 01:57:40;;;;;;;22.42;20.02;;;;;;;-147.16;100.00;58666.56;7397257;19;20078;-65
2023/08/19 02:00:10;;;;;;;23.45;20.90;;;;;;;-147.16;100.00;58666.56;7396903;19;20024;-67
2023/08/19 02:02:39;;;;;;;24.38;21.88;;;;;;;-147.16;100.00;58666.56;7396458;19;20027;-67
2023/08/19 02:05:12;;;;;;;22.25;20.10;;;;;;;-147.16;100.00;58666.56;7395460;19;20087;-66
2023/08/19 02:07:40;;;;;;;24.02;21.45;;;;;;;-147.16;100.00;58666.56;7396599;19;20011;-66
2023/08/19 02:10:13;;;;;;;24.55;22.10;;;;;;;-147.16;100.00;58666.56;7396342;19;20010;-66
2023/08/19 02:12:41;;;;;;;24.10;21.50;;;;;;;-147.16;100.00;58666.56;7394248;19;20013;-67
2023/08/19 02:15:10;;;;;;;23.52;21.13;;;;;;;-147.16;100.00;58666.56;7395947;19;20421;-66
2023/08/19 02:17:39;;;;;;;26.83;22.33;;;;;;;-147.16;100.00;58666.56;7395856;19;20473;-66
2023/08/19 02:20:09;;;;;;;23.05;20.83;;;;;;;-147.16;100.00;58666.56;7395276;19;20074;-66
2023/08/19 02:22:37;;;;;;;26.45;23.58;;;;;;;-147.16;100.00;58666.56;7394565;19;20015;-66
2023/08/19 02:25:07;;;;;;;23.33;21.08;;;;;;;-147.16;100.00;58666.56;7393250;19;20010;-66
2023/08/19 02:27:39;;;;;;;24.75;22.25;;;;;;;-147.16;100.00;58666.56;7395873;19;20014;-66
2023/08/19 02:30:10;;;;;;;25.85;23.27;;;;;;;-147.16;100.00;58666.56;7393961;19;20019;-66
2023/08/19 02:32:38;;;;;;;25.65;23.10;;;;;;;-147.16;100.00;58666.56;7394412;19;20015;-67
2023/08/19 02:35:07;;;;;;;27.58;24.63;;;;;;;-147.16;100.00;58666.56;7395580;19;20070;-66
2023/08/19 02:37:36;;;;;;;24.52;21.92;;;;;;;-147.16;100.00;58666.56;7395465;19;20015;-66
2023/08/19 02:40:06;;;;;;;25.80;23.30;;;;;;;-147.16;100.00;58666.56;7395316;19;20077;-66
2023/08/19 02:42:34;;;;;;;25.83;22.65;;;;;;;-147.16;100.00;58666.56;7394652;19;20033;-67
2023/08/19 02:45:06;;;;;;;25.50;22.92;;;;;;;-147.16;100.00;58666.56;7393485;19;20090;-67
2023/08/19 02:47:34;;;;;;;25.83;23.23;;;;;;;-147.16;100.00;58666.56;7395778;19;20015;-66
2023/08/19 02:50:03;;;;;;;25.50;23.00;;;;;;;-147.16;100.00;58666.56;7395118;19;20078;-66
2023/08/19 02:52:31;;;;;;;25.55;22.98;;;;;;;-147.16;100.00;58666.56;7394445;19;20010;-67
2023/08/19 02:55:00;;;;;;;25.52;22.77;;;;;;;-147.16;100.00;58666.56;7395036;19;20047;-66
2023/08/19 02:57:28;;;;;;;26.52;24.02;;;;;;;-147.16;100.00;58666.56;7394857;19;20014;-66
2023/08/19 02:59:57;;;;;;;28.25;23.80;;;;;;;-147.16;100.00;58666.56;7394874;19;20021;-67
2023/08/19 03:02:28;;;;;;;26.40;23.63;;;;;;;-147.16;100.00;58666.56;7394871;19;20032;-66
2023/08/19 03:04:57;;;;;;;29.42;25.23;;;;;;;-147.16;100.00;58666.56;7393301;19;20035;-67
2023/08/19 03:07:25;;;;;;;26.00;22.90;;;;;;;-147.16;100.00;58666.56;7394645;19;20027;-65
2023/08/19 03:09:54;;;;;;;26.92;24.17;;;;;;;-147.16;100.00;58666.56;7394554;19;20020;-67
2023/08/19 03:12:22;;;;;;;25.00;22.45;;;;;;;-147.16;100.00;58666.56;7394370;19;20018;-66
2023/08/19 03:14:51;;;;;;;24.38;21.77;;;;;;;-147.16;100.00;58666.56;7392268;19;20023;-67
2023/08/19 03:17:19;;;;;;;24.70;22.17;;;;;;;-147.16;100.00;58666.56;7394084;19;20018;-66
2023/08/19 03:19:51;;;;;;;24.15;21.77;;;;;;;-147.16;100.00;58666.56;7391800;19;20023;-66
2023/08/19 03:22:19;;;;;;;23.17;20.30;;;;;;;-147.16;100.00;58666.56;7392374;19;20018;-66
2023/08/19 03:24:47;;;;;;;21.75;19.63;;;;;;;-147.16;100.00;58666.56;7392153;19;20018;-66
2023/08/19 03:27:16;;;;;;;22.25;20.10;;;;;;;-147.16;100.00;58666.56;7394149;19;20019;-66
2023/08/19 03:29:45;;;;;;;22.35;20.25;;;;;;;-147.16;100.00;58666.56;7391844;19;20407;-66
2023/08/19 03:32:13;;;;;;;20.73;18.63;;;;;;;-147.16;100.00;58666.56;7394081;19;20082;-67
2023/08/19 03:34:41;;;;;;;21.15;19.10;;;;;;;-147.16;100.00;58666.56;7392137;19;20011;-66
2023/08/19 03:37:12;;;;;;;20.90;18.70;;;;;;;-147.16;100.00;58666.56;7394829;19;20505;-66
2023/08/19 03:39:41;;;;;;;20.70;18.60;;;;;;;-147.16;100.00;58666.56;7401569;19;20090;-66
2023/08/19 03:42:09;;;;;;;21.48;19.15;;;;;;;-147.16;100.00;58666.56;7400742;19;20024;-66
2023/08/19 03:44:38;;;;;;;22.10;19.90;;;;;;;-147.16;100.00;58666.56;7398258;19;20014;-66
2023/08/19 03:47:07;;;;;;;22.75;20.05;;;;;;;-147.16;100.00;58666.56;7400970;19;20014;-66
2023/08/19 03:49:35;;;;;;;23.10;20.88;;;;;;;-147.16;100.00;58666.56;7400735;19;20435;-66
2023/08/19 03:52:03;;;;;;;22.63;20.50;;;;;;;-147.16;100.00;58666.56;7400252;19;20364;-66
2023/08/19 03:54:35;;;;;;;22.02;19.80;;;;;;;-147.16;100.00;58666.56;7397843;19;20473;-66
2023/08/19 03:57:04;;;;;;;22.90;20.75;;;;;;;-147.16;100.00;58666.56;7397827;19;20010;-67
2023/08/19 03:59:32;;;;;;;23.33;20.25;;;;;;;-147.16;100.00;58666.56;7400508;19;20357;-66
2023/08/19 04:02:01;;;;;;;22.90;20.70;;;;;;;-147.16;100.00;58666.56;7400824;19;20010;-66
2023/08/19 04:04:29;;;;;;;23.55;20.85;;;;;;;-147.16;100.00;58666.56;7398266;19;20018;-66
2023/08/19 04:06:58;;;;;;;22.02;19.80;;;;;;;-147.16;100.00;58666.56;7400574;19;20030;-67
2023/08/19 04:09:26;;;;;;;45.22;37.58;;;;;;;-147.16;100.00;58666.56;7400234;19;20007;-66
2023/08/19 04:11:57;;;;;;;26.85;24.05;;;;;;;-147.16;100.00;58666.56;7400221;19;20429;-66
2023/08/19 04:14:26;;;;;;;25.00;22.33;;;;;;;-147.16;100.00;58666.56;7398422;19;20019;-67
2023/08/19 04:16:54;;;;;;;23.23;21.05;;;;;;;-147.16;100.00;58666.56;7399990;19;20014;-66
2023/08/19 04:19:22;;;;;;;28.75;25.67;;;;;;;-147.16;100.00;58666.56;7399531;19;20069;-66
2023/08/19 04:21:51;;;;;;;26.38;23.77;;;;;;;-147.16;100.00;58666.56;7397088;19;20082;-66
2023/08/19 04:24:19;;;;;;;29.30;26.27;;;;;;;-147.16;100.00;58666.56;7397957;19;20077;-67
2023/08/19 04:26:48;;;;;;;25.58;22.77;;;;;;;-147.16;100.00;58666.56;7399903;19;20010;-67
2023/08/19 04:29:19;;;;;;;26.30;23.67;;;;;;;-147.16;100.00;58666.56;7399744;19;20011;-66
2023/08/19 04:31:47;;;;;;;24.02;21.63;;;;;;;-147.16;100.00;58666.56;7397568;19;20010;-67
2023/08/19 04:34:16;;;;;;;26.58;23.73;;;;;;;-147.16;100.00;58666.56;7396882;19;20368;-66
2023/08/19 04:36:44;;;;;;;25.65;23.15;;;;;;;-147.16;100.00;58666.56;7399486;19;20074;-67
2023/08/19 04:39:13;;;;;;;30.15;25.55;;;;;;;-147.16;100.00;58666.56;7399465;19;20018;-67
2023/08/19 04:41:41;;;;;;;25.88;23.15;;;;;;;-147.16;100.00;58666.56;7396635;19;20023;-67
2023/08/19 04:44:10;;;;;;;26.85;24.10;;;;;;;-147.16;100.00;58666.56;7397599;19;20087;-67
2023/08/19 04:46:41;;;;;;;66.18;53.53;;;;;;;-147.16;100.00;58666.56;7396595;19;20014;-66
2023/08/19 04:49:09;;;;;;;30.60;27.30;;;;;;;-147.16;100.00;58666.56;7398407;19;20090;-66
2023/08/19 04:51:38;;;;;;;28.60;25.77;;;;;;;-147.16;100.00;58666.56;7398577;19;20364;-67
2023/08/19 04:54:07;;;;;;;28.92;25.27;;;;;;;-147.16;100.00;58666.56;7396836;19;20019;-67
2023/08/19 04:56:36;;;;;;;27.90;25.05;;;;;;;-147.16;100.00;58666.56;7396166;19;20474;-67
2023/08/19 04:59:05;;;;;;;28.85;26.02;;;;;;;-147.16;100.00;58666.56;7398815;19;20027;-67
2023/08/19 05:01:33;;;;;;;30.13;27.08;;;;;;;-147.16;100.00;58666.56;7396429;19;20014;-67
2023/08/19 05:04:05;;;;;;;27.17;24.52;;;;;;;-147.16;100.00;58666.56;7396264;19;20014;-66
2023/08/19 05:06:33;;;;;;;32.22;28.77;;;;;;;-147.16;100.00;58666.56;7396030;19;20498;-66
2023/08/19 05:09:02;;;;;;;29.45;26.58;;;;;;;-147.16;100.00;58666.56;7398285;19;20027;-67
2023/08/19 05:11:31;;;;;;;28.50;25.40;;;;;;;-147.16;100.00;58666.56;7398335;19;20011;-67
2023/08/19 05:13:59;;;;;;;28.50;25.52;;;;;;;-147.16;100.00;58666.56;7395660;19;20434;-67
2023/08/19 05:16:28;;;;;;;31.65;28.40;;;;;;;-147.16;100.00;58666.56;7397796;19;20074;-67
2023/08/19 05:19:16;;;;;;;27.58;24.42;;;;;;;-147.16;100.00;58666.56;7398089;19;20025;-67
2023/08/19 05:21:51;;;;;;;27.42;24.73;;;;;;;-147.16;100.00;58666.56;7394813;19;20376;-67
2023/08/19 05:24:26;;;;;;;26.83;24.10;;;;;;;-147.16;100.00;58666.56;7395877;19;20512;-67
2023/08/19 05:26:54;;;;;;;26.50;23.80;;;;;;;-147.16;100.00;58666.56;7395898;19;20031;-67
2023/08/19 05:29:23;;;;;;;26.05;23.27;;;;;;;-147.16;100.00;58666.56;7397408;19;20007;-67
2023/08/19 05:31:52;;;;;;;25.73;23.25;;;;;;;-147.16;100.00;58666.56;7396965;19;20086;-67
2023/08/19 05:34:24;;;;;;;26.00;23.38;;;;;;;-147.16;100.00;58666.56;7396106;19;20092;-67
2023/08/19 05:36:53;;;;;;;27.25;23.83;;;;;;;-147.16;100.00;58666.56;7397360;19;20027;-67
2023/08/19 05:39:21;;;;;;;27.05;24.30;;;;;;;-147.16;100.00;58666.56;7397005;19;20010;-67
2023/08/19 05:41:50;;;;;;;25.33;22.73;;;;;;;-147.16;100.00;58666.56;7394809;19;20375;-67
2023/08/19 05:44:18;;;;;;;25.45;22.88;;;;;;;-147.16;100.00;58666.56;7395521;19;20078;-66
2023/08/19 05:46:47;;;;;;;26.63;23.95;;;;;;;-147.16;100.00;58666.56;7395126;19;20073;-67
2023/08/19 05:49:15;;;;;;;26.00;23.30;;;;;;;-147.16;100.00;58666.56;7396681;19;20376;-67
2023/08/19 05:51:46;;;;;;;26.60;24.00;;;;;;;-147.16;100.00;58666.56;7396643;19;20485;-66
2023/08/19 05:54:15;;;;;;;27.55;24.40;;;;;;;-147.16;100.00;58666.56;7395679;19;20011;-67
2023/08/19 05:56:43;;;;;;;29.30;26.33;;;;;;;-147.16;100.00;58666.56;7396454;19;20070;-67
2023/08/19 05:59:11;;;;;;;28.83;25.77;;;;;;;-147.16;100.00;58666.56;7396759;19;20010;-65
2023/08/19 06:01:40;;;;;;;28.27;25.38;;;;;;;-147.16;100.00;58666.56;7395183;19;20097;-66
2023/08/19 06:04:08;;;;;;;26.25;23.55;;;;;;;-147.16;100.00;58666.56;7395320;19;20025;-67
2023/08/19 06:06:37;;;;;;;26.00;23.60;;;;;;;-147.16;100.00;58666.56;7394236;19;20442;-66
2023/08/19 06:09:09;;;;;;;26.63;23.92;;;;;;;-147.16;100.00;58666.56;7394270;19;20368;-67
2023/08/19 06:11:48;;;;;;;27.15;24.17;;;;;;;-147.16;100.00;58666.56;7396712;19;20025;-66
2023/08/19 06:14:17;;;;;;;26.98;24.35;;;;;;;-147.16;100.00;58666.56;7394922;19;20007;-67
2023/08/19 06:16:46;;;;;;;25.27;22.58;;;;;;;-147.16;100.00;58666.56;7394597;19;20018;-67
2023/08/19 06:19:15;;;;;;;26.48;22.38;;;;;;;-147.16;100.00;58666.56;7396171;19;20014;-67
2023/08/19 06:21:43;;;;;;;25.95;23.40;;;;;;;-147.16;100.00;58666.56;7393988;19;20082;-66
2023/08/19 06:24:14;;;;;;;26.90;24.35;;;;;;;-147.16;100.00;58666.56;7394580;19;20085;-66
2023/08/19 06:26:43;;;;;;;28.15;24.75;;;;;;;-147.16;100.00;58666.56;7394319;19;20014;-66
2023/08/19 06:29:11;;;;;;;24.55;22.25;;;;;;;-147.16;100.00;58666.56;7393355;19;20027;-65
2023/08/19 06:31:40;;;;;;;28.15;25.35;;;;;;;-147.16;100.00;58666.56;7395668;19;20077;-65
2023/08/19 06:34:10;;;;;;;26.50;23.98;;;;;;;-147.16;100.00;58666.56;7393782;19;20372;-66
2023/08/19 06:36:43;;;;;;;27.20;24.60;;;;;;;-147.16;100.00;58666.56;7395299;19;20026;-65
2023/08/19 06:39:20;;;;;;;31.48;28.17;;;;;;;-147.16;100.00;58666.56;7394934;19;20066;-65
2023/08/19 06:41:55;;;;;;;70.95;60.58;;;;;;;-147.16;100.00;58666.56;7395203;19;20366;-65
2023/08/19 06:44:24;;;;;;;39.40;32.78;;;;;;;-147.16;100.00;58666.56;7393351;19;20021;-65
2023/08/19 06:46:56;;;;;;;26.33;23.73;;;;;;;-147.16;100.00;58666.56;7393880;19;20047;-65
2023/08/19 06:49:25;;;;;;;25.92;23.27;;;;;;;-147.16;100.00;58666.56;7394618;19;20550;-65
2023/08/19 06:51:55;;;;;;;25.90;23.17;;;;;;;-147.16;100.00;58666.56;7394618;19;20074;-65
2023/08/19 06:54:27;;;;;;;24.52;21.98;;;;;;;-147.16;100.00;58666.56;7393383;19;20039;-65
2023/08/19 06:57:03;;;;;;;27.27;24.67;;;;;;;-147.16;100.00;58666.56;7392514;19;20541;-65
2023/08/19 06:59:38;;;;;;;26.77;23.80;;;;;;;-147.16;100.00;58666.56;7395227;19;20018;-66
2023/08/19 07:02:08;;;;;;;26.70;24.08;;;;;;;-147.16;100.00;58666.56;7395251;19;20037;-65
2023/08/19 07:04:37;;;;;;;24.45;22.13;;;;;;;-147.16;100.00;58666.56;7392401;19;20372;-65
2023/08/19 07:07:07;;;;;;;24.70;21.70;;;;;;;-147.16;100.00;58666.56;7393125;19;20038;-65
2023/08/19 07:09:39;;;;;;;26.02;23.25;;;;;;;-147.16;100.00;58666.56;7394669;19;20018;-66
2023/08/19 07:12:09;;;;;;;23.65;21.30;;;;;;;-147.16;100.00;58666.56;7396567;19;20025;-66
2023/08/19 07:14:40;;;;;;;23.80;21.38;;;;;;;-147.16;100.00;58666.56;7399393;19;20027;-66
2023/08/19 07:17:10;;;;;;;24.33;22.05;;;;;;;-147.16;100.00;58666.56;7402137;19;20022;-66
2023/08/19 07:19:41;;;;;;;22.85;20.23;;;;;;;-147.16;100.00;58666.56;7399188;19;20015;-65
2023/08/19 07:22:10;;;;;;;23.17;20.77;;;;;;;-147.16;100.00;58666.56;7398592;19;20531;-65
2023/08/19 07:24:44;;;;;;;22.27;19.88;;;;;;;-147.16;100.00;58666.56;7398107;19;20387;-65
2023/08/19 07:27:15;;;;;;;23.05;20.10;;;;;;;-147.16;100.00;58666.56;7398857;19;20006;-65
2023/08/19 07:29:46;;;;;;;23.67;21.20;;;;;;;-147.16;100.00;58666.56;7402531;19;20014;-65
2023/08/19 07:32:16;;;;;;;23.00;20.80;;;;;;;-147.16;100.00;58666.56;7402013;19;20010;-65
2023/08/19 07:34:44;;;;;;;23.33;20.92;;;;;;;-147.16;100.00;58666.56;7398694;19;20018;-65
2023/08/19 07:37:13;;;;;;;22.63;20.38;;;;;;;-147.16;100.00;58666.56;7401277;19;20017;-65
2023/08/19 07:39:44;;;;;;;22.75;20.40;;;;;;;-147.16;100.00;58666.56;7401090;19;20078;-66
2023/08/19 07:42:12;;;;;;;22.52;20.15;;;;;;;-147.16;100.00;58666.56;7401258;19;20082;-66
2023/08/19 07:44:41;;;;;;;23.13;20.83;;;;;;;-147.16;100.00;58666.56;7397473;19;20078;-65
2023/08/19 07:47:09;;;;;;;20.85;18.77;;;;;;;-147.16;100.00;58666.56;7397463;19;20015;-65
2023/08/19 07:49:38;;;;;;;22.02;20.00;;;;;;;-147.16;100.00;58666.56;7401038;19;20018;-65
2023/08/19 07:52:07;;;;;;;22.02;19.73;;;;;;;-147.16;100.00;58666.56;7400068;19;20431;-65
2023/08/19 07:54:35;;;;;;;21.63;19.50;;;;;;;-147.16;100.00;58666.56;7396945;19;20033;-65
2023/08/19 07:57:06;;;;;;;20.90;18.88;;;;;;;-147.16;100.00;58666.56;7399505;19;20010;-65
2023/08/19 07:59:36;;;;;;;20.55;18.55;;;;;;;-147.16;100.00;58666.56;7399871;19;20027;-65
2023/08/19 08:02:05;;;;;;;20.00;18.17;;;;;;;-147.16;100.00;58666.56;7399863;19;20034;-65
2023/08/19 08:04:33;;;;;;;20.83;18.83;;;;;;;-147.16;100.00;58666.56;7397636;19;20014;-65
2023/08/19 08:07:03;;;;;;;20.98;18.92;;;;;;;-147.16;100.00;58666.56;7398834;19;20126;-65
2023/08/19 08:09:31;;;;;;;20.88;18.83;;;;;;;-147.16;100.00;58666.56;7399354;19;20013;-65
2023/08/19 08:11:59;;;;;;;20.17;18.10;;;;;;;-147.16;100.00;58666.56;7399997;19;20023;-65
2023/08/19 08:14:30;;;;;;;20.58;18.48;;;;;;;-147.16;100.00;58666.56;7397881;19;20371;-66
2023/08/19 08:16:59;;;;;;;20.25;18.23;;;;;;;-147.16;100.00;58666.56;7397822;19;20014;-66
2023/08/19 08:19:28;;;;;;;19.65;17.67;;;;;;;-147.16;100.00;58666.56;7399926;19;20066;-65
2023/08/19 08:21:57;;;;;;;20.08;18.05;;;;;;;-147.16;100.00;58666.56;7396762;19;20017;-67
2023/08/19 08:24:26;;;;;;;18.90;17.10;;;;;;;-147.16;100.00;58666.56;7396010;19;20007;-66
2023/08/19 08:26:54;;;;;;;17.85;16.13;;;;;;;-147.16;100.00;58666.56;7398854;19;20011;-66
2023/08/19 08:29:24;;;;;;;22.65;16.83;;;;;;;-147.16;100.00;58666.56;7399395;19;20037;-67
2023/08/19 08:31:55;;;;;;;20.50;16.35;;;;;;;-147.16;100.00;58666.56;7398668;19;20014;-67
2023/08/19 08:34:23;;;;;;;19.33;17.50;;;;;;;-147.16;100.00;58666.56;7397879;19;20361;-67
2023/08/19 08:36:52;;;;;;;18.15;16.45;;;;;;;-147.16;100.00;58666.56;7398756;19;20027;-68
2023/08/19 08:39:20;;;;;;;18.77;16.55;;;;;;;-147.16;100.00;58666.56;7398992;19;20074;-67
2023/08/19 08:41:49;;;;;;;18.02;16.33;;;;;;;-147.16;100.00;58666.56;7398726;19;20434;-67
2023/08/19 08:44:18;;;;;;;17.55;15.90;;;;;;;-147.16;100.00;58666.56;7396931;19;20039;-67
2023/08/19 08:46:49;;;;;;;18.25;16.45;;;;;;;-147.16;100.00;58666.56;7398027;19;20023;-67
2023/08/19 08:49:21;;;;;;;17.55;15.52;;;;;;;-147.16;100.00;58666.56;7399261;19;20086;-67
2023/08/19 08:51:50;;;;;;;17.15;15.55;;;;;;;-147.16;100.00;58666.56;7396677;19;20011;-67
2023/08/19 08:54:19;;;;;;;16.67;15.18;;;;;;;-147.16;100.00;58666.56;7396351;19;20018;-68
2023/08/19 08:56:47;;;;;;;16.35;14.65;;;;;;;-147.16;100.00;58666.56;7398076;19;20027;-68
2023/08/19 08:59:16;;;;;;;16.25;14.77;;;;;;;-147.16;100.00;58666.56;7398233;19;20023;-67
2023/08/19 09:01:48;;;;;;;16.85;15.45;;;;;;;-147.16;100.00;58666.56;7395849;19;20019;-66
2023/08/19 09:04:20;;;;;;;17.08;15.35;;;;;;;-147.16;100.00;58666.56;7396679;19;20059;-66
2023/08/19 09:06:55;;;;;;;15.15;13.75;;;;;;;-147.16;100.00;58666.56;7397659;19;20082;-67
2023/08/19 09:09:25;;;;;;;15.77;14.18;;;;;;;-147.16;100.00;58666.56;7398618;19;20024;-67
2023/08/19 09:11:55;;;;;;;15.55;13.90;;;;;;;-147.16;100.00;58666.56;7398291;19;20032;-66
2023/08/19 09:14:36;;;;;;;14.73;13.35;;;;;;;-147.16;100.00;58666.56;7396748;19;20041;-67
2023/08/19 09:17:05;;;;;;;14.70;13.32;;;;;;;-147.16;100.00;58666.56;7396321;19;20019;-66
2023/08/19 09:19:36;;;;;;;17.15;13.50;;;;;;;-147.16;100.00;58666.56;7397775;19;20074;-66
2023/08/19 09:22:12;;;;;;;13.93;12.27;;;;;;;-147.16;100.00;58666.56;7396219;19;20090;-66
2023/08/19 09:24:41;;;;;;;13.52;12.43;;;;;;;-147.16;100.00;58666.56;7395886;19;20010;-66
2023/08/19 09:27:09;;;;;;;13.60;12.30;;;;;;;-147.16;100.00;58666.56;7396877;19;20086;-67
2023/08/19 09:29:38;;;;;;;13.20;11.88;;;;;;;-147.16;100.00;58666.56;7397786;19;20019;-66
2023/08/19 09:32:07;;;;;;;14.30;13.05;;;;;;;-147.16;100.00;58666.56;7395800;19;20015;-67
2023/08/19 09:34:39;;;;;;;15.80;12.20;;;;;;;-147.16;100.00;58666.56;7393266;19;20014;-66
2023/08/19 09:37:11;;;;;;;12.77;11.57;;;;;;;-147.16;100.00;58666.56;7398818;19;20027;-67
2023/08/19 09:39:39;;;;;;;13.75;12.40;;;;;;;-147.16;100.00;58666.56;7395976;19;20023;-67
2023/08/19 09:42:11;;;;;;;13.43;12.05;;;;;;;-147.16;100.00;58666.56;7397323;19;20066;-67
2023/08/19 09:44:42;;;;;;;15.25;13.73;;;;;;;-147.16;100.00;58666.56;7395055;19;20014;-67
2023/08/19 09:47:11;;;;;;;13.82;12.52;;;;;;;-147.16;100.00;58666.56;7394991;19;20006;-66
2023/08/19 09:49:42;;;;;;;13.32;12.07;;;;;;;-147.16;100.00;58666.56;7397168;19;20027;-67
2023/08/19 09:52:18;;;;;;;13.57;12.38;;;;;;;-147.16;100.00;58666.56;7396650;19;20014;-67
2023/08/19 09:54:53;;;;;;;13.82;12.43;;;;;;;-147.16;100.00;58666.56;7394959;19;20017;-67
2023/08/19 09:57:33;;;;;;;13.82;12.52;;;;;;;-147.16;100.00;58666.56;7395071;19;20006;-67
2023/08/19 10:00:03;;;;;;;13.15;11.95;;;;;;;-147.16;100.00;58666.56;7394993;19;20010;-67
2023/08/19 10:02:32;;;;;;;12.23;11.02;;;;;;;-147.16;100.00;58666.56;7394621;19;20014;-68
2023/08/19 10:05:04;;;;;;;13.50;12.20;;;;;;;-147.16;100.00;58666.56;7396187;19;20090;-67
2023/08/19 10:07:34;;;;;;;13.85;12.02;;;;;;;-147.16;100.00;58666.56;7394766;19;20007;-67
2023/08/19 10:10:06;;;;;;;11.27;10.18;;;;;;;-147.16;100.00;58666.56;7396163;19;20090;-66
2023/08/19 10:12:38;;;;;;;12.98;11.60;;;;;;;-147.16;100.00;58666.56;7394734;19;20478;-67
2023/08/19 10:15:11;;;;;;;12.85;11.55;;;;;;;-147.16;100.00;58666.56;7395898;19;20011;-67
2023/08/19 10:17:43;;;;;;;12.00;10.80;;;;;;;-147.16;100.00;58666.56;7396493;19;20078;-69
2023/08/19 10:20:18;;;;;;;12.73;11.43;;;;;;;-147.16;100.00;58666.56;7395628;19;20014;-69
2023/08/19 10:22:50;;;;;;;11.85;10.75;;;;;;;-147.16;100.00;58666.56;7394596;19;20087;-69
2023/08/19 10:25:20;;;;;;;11.48;10.48;;;;;;;-147.16;100.00;58666.56;7395687;19;20019;-69
2023/08/19 10:27:49;;;;;;;11.68;10.65;;;;;;;-147.16;100.00;58666.56;7393632;19;20010;-69
2023/08/19 10:30:31;;;;;;;10.63;9.68;;;;;;;-147.16;100.00;58666.56;7395203;19;20019;-69
2023/08/19 10:33:06;;;;;;;11.07;9.97;;;;;;;-147.16;100.00;58666.56;7395081;19;20015;-69
2023/08/19 10:36:03;;;;;;;10.52;9.23;;;;;;;-147.16;100.00;58666.56;7395454;19;20014;-68
2023/08/19 10:38:45;;;;;;;11.80;9.82;;;;;;;-147.16;100.00;58666.56;7394827;19;20546;-68
2023/08/19 10:41:23;;;;;;;10.30;9.40;;;;;;;-147.16;100.00;58666.56;7395423;19;20031;-69
2023/08/19 10:43:59;;;;;;;10.45;9.55;;;;;;;-147.16;100.00;58666.56;7394355;19;20014;-69
2023/08/19 10:46:36;;;;;;;9.48;8.68;;;;;;;-147.16;100.00;58666.56;7395094;19;20025;-68
2023/08/19 10:49:05;;;;;;;9.75;8.75;;;;;;;-147.16;100.00;58666.56;7395667;19;20018;-68
2023/08/19 10:51:51;;;;;;;9.68;8.30;;;;;;;-147.16;100.00;58666.56;7394492;19;20414;-69
2023/08/19 10:54:31;;;;;;;9.82;8.93;;;;;;;-147.16;100.00;58666.56;7393597;19;20011;-67
2023/08/19 10:57:10;;;;;;;9.63;8.52;;;;;;;-147.16;100.00;58666.56;7395900;19;20020;-69
2023/08/19 10:59:39;;;;;;;9.80;8.45;;;;;;;-147.16;100.00;58666.56;7393544;19;20032;-68
2023/08/19 11:02:09;;;;;;;8.65;7.85;;;;;;;-147.16;100.00;58666.56;7394616;19;20246;-68
2023/08/19 11:04:42;;;;;;;9.73;8.65;;;;;;;-147.16;100.00;58666.56;7392849;19;20047;-69
2023/08/19 11:07:13;;;;;;;8.60;7.90;;;;;;;-147.16;100.00;58666.56;7392582;19;20379;-68
2023/08/19 11:09:43;;;;;;;9.65;8.45;;;;;;;-147.16;100.00;58666.56;7394143;19;20079;-68